sensor_id;sensor_type;location;lat;lon;timestamp;P1;durP1;ratioP1;P2;durP2;ratioP2
45198;SDS011;30941;46.422;18.772;2022-09-09T00:04:33;6.88;;;4.13;;
45198;SDS011;30941;46.422;18.772;2022-09-09T00:09:51;6.25;;;4.15;;
45198;SDS011;30941;46.422;18.772;2022-09-09T00:15:07;6.45;;;3.92;;
45198;SDS011;30941;46.422;18.772;2022-09-09T00:17:38;7.72;;;4.32;;
45198;SDS011;30941;46.422;18.772;2022-09-09T00:25:46;7.55;;;4.95;;
45198;SDS011;30941;46.422;18.772;2022-09-09T00:28:20;5.63;;;4.50;;
45198;SDS011;30941;46.422;18.772;2022-09-09T00:30:48;5.75;;;4.22;;
45198;SDS011;30941;46.422;18.772;2022-09-09T00:33:14;6.63;;;4.47;;
45198;SDS011;30941;46.422;18.772;2022-09-09T00:35:47;7.97;;;4.80;;
45198;SDS011;30941;46.422;18.772;2022-09-09T00:38:23;7.60;;;4.88;;
45198;SDS011;30941;46.422;18.772;2022-09-09T00:40:52;6.80;;;5.18;;
45198;SDS011;30941;46.422;18.772;2022-09-09T00:43:28;7.95;;;4.82;;
45198;SDS011;30941;46.422;18.772;2022-09-09T00:48:31;5.72;;;4.50;;
45198;SDS011;30941;46.422;18.772;2022-09-09T00:51:04;8.13;;;5.03;;
45198;SDS011;30941;46.422;18.772;2022-09-09T00:54:24;6.10;;;4.50;;
45198;SDS011;30941;46.422;18.772;2022-09-09T00:57:19;8.05;;;4.78;;
45198;SDS011;30941;46.422;18.772;2022-09-09T01:03:05;7.63;;;4.68;;
45198;SDS011;30941;46.422;18.772;2022-09-09T01:06:36;6.00;;;4.85;;
45198;SDS011;30941;46.422;18.772;2022-09-09T01:08:36;6.40;;;4.43;;
45198;SDS011;30941;46.422;18.772;2022-09-09T01:11:05;5.85;;;4.30;;
45198;SDS011;30941;46.422;18.772;2022-09-09T01:13:35;6.82;;;4.40;;
45198;SDS011;30941;46.422;18.772;2022-09-09T01:16:03;6.88;;;4.00;;
45198;SDS011;30941;46.422;18.772;2022-09-09T01:18:38;6.65;;;3.97;;
45198;SDS011;30941;46.422;18.772;2022-09-09T01:26:43;5.82;;;4.35;;
45198;SDS011;30941;46.422;18.772;2022-09-09T01:29:13;5.63;;;3.97;;
45198;SDS011;30941;46.422;18.772;2022-09-09T01:34:09;5.13;;;4.07;;
45198;SDS011;30941;46.422;18.772;2022-09-09T01:36:41;6.03;;;4.07;;
45198;SDS011;30941;46.422;18.772;2022-09-09T01:39:10;6.38;;;4.13;;
45198;SDS011;30941;46.422;18.772;2022-09-09T01:41:35;4.97;;;3.75;;
45198;SDS011;30941;46.422;18.772;2022-09-09T01:44:01;6.50;;;4.50;;
45198;SDS011;30941;46.422;18.772;2022-09-09T01:46:27;6.78;;;4.40;;
45198;SDS011;30941;46.422;18.772;2022-09-09T01:48:53;7.65;;;4.97;;
45198;SDS011;30941;46.422;18.772;2022-09-09T01:51:20;5.78;;;4.60;;
45198;SDS011;30941;46.422;18.772;2022-09-09T01:53:46;6.82;;;5.30;;
45198;SDS011;30941;46.422;18.772;2022-09-09T02:04:25;5.65;;;4.60;;
45198;SDS011;30941;46.422;18.772;2022-09-09T02:06:53;5.85;;;4.47;;
45198;SDS011;30941;46.422;18.772;2022-09-09T02:09:22;5.85;;;4.13;;
45198;SDS011;30941;46.422;18.772;2022-09-09T02:11:49;5.88;;;3.97;;
45198;SDS011;30941;46.422;18.772;2022-09-09T02:14:31;6.43;;;4.35;;
45198;SDS011;30941;46.422;18.772;2022-09-09T02:17:02;4.93;;;4.10;;
45198;SDS011;30941;46.422;18.772;2022-09-09T02:19:45;6.00;;;3.58;;
45198;SDS011;30941;46.422;18.772;2022-09-09T02:22:13;5.28;;;4.05;;
45198;SDS011;30941;46.422;18.772;2022-09-09T02:24:41;5.45;;;3.80;;
45198;SDS011;30941;46.422;18.772;2022-09-09T02:27:07;5.15;;;3.88;;
45198;SDS011;30941;46.422;18.772;2022-09-09T02:29:34;6.78;;;3.97;;
45198;SDS011;30941;46.422;18.772;2022-09-09T02:32:03;4.97;;;3.80;;
45198;SDS011;30941;46.422;18.772;2022-09-09T02:34:31;6.90;;;3.90;;
45198;SDS011;30941;46.422;18.772;2022-09-09T02:37:01;4.20;;;3.80;;
45198;SDS011;30941;46.422;18.772;2022-09-09T02:39:28;5.90;;;4.30;;
45198;SDS011;30941;46.422;18.772;2022-09-09T02:41:54;5.88;;;4.25;;
45198;SDS011;30941;46.422;18.772;2022-09-09T02:44:19;5.22;;;4.20;;
45198;SDS011;30941;46.422;18.772;2022-09-09T02:49:51;4.97;;;4.03;;
45198;SDS011;30941;46.422;18.772;2022-09-09T02:52:33;4.95;;;3.80;;
45198;SDS011;30941;46.422;18.772;2022-09-09T02:55:11;5.10;;;3.72;;
45198;SDS011;30941;46.422;18.772;2022-09-09T02:57:40;5.93;;;3.85;;
45198;SDS011;30941;46.422;18.772;2022-09-09T03:00:07;5.50;;;4.05;;
45198;SDS011;30941;46.422;18.772;2022-09-09T03:02:33;7.35;;;4.25;;
45198;SDS011;30941;46.422;18.772;2022-09-09T03:04:59;5.95;;;4.05;;
45198;SDS011;30941;46.422;18.772;2022-09-09T03:07:24;4.47;;;3.50;;
45198;SDS011;30941;46.422;18.772;2022-09-09T03:09:50;4.32;;;3.50;;
45198;SDS011;30941;46.422;18.772;2022-09-09T03:12:15;5.32;;;3.60;;
45198;SDS011;30941;46.422;18.772;2022-09-09T03:14:41;4.80;;;3.70;;
45198;SDS011;30941;46.422;18.772;2022-09-09T03:17:08;5.13;;;3.53;;
45198;SDS011;30941;46.422;18.772;2022-09-09T03:19:34;5.20;;;3.70;;
45198;SDS011;30941;46.422;18.772;2022-09-09T03:22:00;4.32;;;3.92;;
45198;SDS011;30941;46.422;18.772;2022-09-09T03:24:25;5.15;;;3.67;;
45198;SDS011;30941;46.422;18.772;2022-09-09T03:26:51;6.25;;;3.90;;
45198;SDS011;30941;46.422;18.772;2022-09-09T03:29:16;7.03;;;4.07;;
45198;SDS011;30941;46.422;18.772;2022-09-09T03:31:43;4.70;;;3.45;;
45198;SDS011;30941;46.422;18.772;2022-09-09T03:34:09;5.40;;;3.53;;
45198;SDS011;30941;46.422;18.772;2022-09-09T03:36:35;5.32;;;3.60;;
45198;SDS011;30941;46.422;18.772;2022-09-09T03:39:01;4.95;;;3.55;;
45198;SDS011;30941;46.422;18.772;2022-09-09T03:41:28;6.18;;;3.42;;
45198;SDS011;30941;46.422;18.772;2022-09-09T03:43:54;4.65;;;3.58;;
45198;SDS011;30941;46.422;18.772;2022-09-09T03:46:20;4.32;;;3.20;;
45198;SDS011;30941;46.422;18.772;2022-09-09T03:48:46;4.28;;;3.30;;
45198;SDS011;30941;46.422;18.772;2022-09-09T03:51:12;4.38;;;2.92;;
45198;SDS011;30941;46.422;18.772;2022-09-09T03:53:37;3.90;;;3.17;;
45198;SDS011;30941;46.422;18.772;2022-09-09T03:56:03;4.65;;;3.70;;
45198;SDS011;30941;46.422;18.772;2022-09-09T03:58:31;4.95;;;3.28;;
45198;SDS011;30941;46.422;18.772;2022-09-09T04:01:18;6.43;;;3.75;;
45198;SDS011;30941;46.422;18.772;2022-09-09T04:03:43;4.63;;;3.58;;
45198;SDS011;30941;46.422;18.772;2022-09-09T04:06:10;4.40;;;3.63;;
45198;SDS011;30941;46.422;18.772;2022-09-09T04:08:38;4.80;;;3.75;;
45198;SDS011;30941;46.422;18.772;2022-09-09T04:11:04;5.45;;;3.80;;
45198;SDS011;30941;46.422;18.772;2022-09-09T04:13:31;4.93;;;4.22;;
45198;SDS011;30941;46.422;18.772;2022-09-09T04:15:59;5.35;;;4.22;;
45198;SDS011;30941;46.422;18.772;2022-09-09T04:18:26;4.45;;;3.35;;
45198;SDS011;30941;46.422;18.772;2022-09-09T04:20:53;5.32;;;3.83;;
45198;SDS011;30941;46.422;18.772;2022-09-09T04:23:20;3.95;;;3.53;;
45198;SDS011;30941;46.422;18.772;2022-09-09T04:25:46;6.30;;;4.00;;
45198;SDS011;30941;46.422;18.772;2022-09-09T04:28:17;5.18;;;3.95;;
45198;SDS011;30941;46.422;18.772;2022-09-09T04:30:43;6.18;;;4.30;;
45198;SDS011;30941;46.422;18.772;2022-09-09T04:33:09;5.70;;;4.07;;
45198;SDS011;30941;46.422;18.772;2022-09-09T04:35:35;6.70;;;4.57;;
45198;SDS011;30941;46.422;18.772;2022-09-09T04:38:01;6.35;;;3.90;;
45198;SDS011;30941;46.422;18.772;2022-09-09T04:40:27;6.78;;;4.25;;
45198;SDS011;30941;46.422;18.772;2022-09-09T04:42:54;5.13;;;4.45;;
45198;SDS011;30941;46.422;18.772;2022-09-09T04:45:20;5.78;;;4.30;;
45198;SDS011;30941;46.422;18.772;2022-09-09T04:47:45;5.53;;;4.50;;
45198;SDS011;30941;46.422;18.772;2022-09-09T04:50:11;5.85;;;4.10;;
45198;SDS011;30941;46.422;18.772;2022-09-09T04:52:37;5.60;;;4.60;;
45198;SDS011;30941;46.422;18.772;2022-09-09T04:55:03;8.13;;;4.95;;
45198;SDS011;30941;46.422;18.772;2022-09-09T04:57:29;6.65;;;4.80;;
45198;SDS011;30941;46.422;18.772;2022-09-09T04:59:57;6.07;;;4.90;;
45198;SDS011;30941;46.422;18.772;2022-09-09T05:02:23;5.20;;;4.50;;
45198;SDS011;30941;46.422;18.772;2022-09-09T05:04:48;6.18;;;4.90;;
45198;SDS011;30941;46.422;18.772;2022-09-09T05:07:15;5.90;;;4.95;;
45198;SDS011;30941;46.422;18.772;2022-09-09T05:09:40;5.95;;;4.70;;
45198;SDS011;30941;46.422;18.772;2022-09-09T05:12:06;5.72;;;4.68;;
45198;SDS011;30941;46.422;18.772;2022-09-09T05:14:31;5.35;;;4.85;;
45198;SDS011;30941;46.422;18.772;2022-09-09T05:16:57;9.93;;;5.22;;
45198;SDS011;30941;46.422;18.772;2022-09-09T05:19:23;6.18;;;4.68;;
45198;SDS011;30941;46.422;18.772;2022-09-09T05:21:48;6.63;;;4.97;;
45198;SDS011;30941;46.422;18.772;2022-09-09T05:24:15;7.60;;;5.40;;
45198;SDS011;30941;46.422;18.772;2022-09-09T05:26:40;8.57;;;5.35;;
45198;SDS011;30941;46.422;18.772;2022-09-09T05:29:06;5.72;;;4.85;;
45198;SDS011;30941;46.422;18.772;2022-09-09T05:31:33;5.35;;;4.55;;
45198;SDS011;30941;46.422;18.772;2022-09-09T05:33:59;7.90;;;4.93;;
45198;SDS011;30941;46.422;18.772;2022-09-09T05:36:24;9.85;;;4.90;;
45198;SDS011;30941;46.422;18.772;2022-09-09T07:22:41;2.75;;;1.52;;
45198;SDS011;30941;46.422;18.772;2022-09-09T07:25:07;1.85;;;1.48;;
45198;SDS011;30941;46.422;18.772;2022-09-09T07:27:32;1.50;;;1.40;;
45198;SDS011;30941;46.422;18.772;2022-09-09T07:29:58;2.88;;;1.30;;
45198;SDS011;30941;46.422;18.772;2022-09-09T07:32:23;1.30;;;1.20;;
45198;SDS011;30941;46.422;18.772;2022-09-09T07:34:50;2.00;;;1.35;;
45198;SDS011;30941;46.422;18.772;2022-09-09T07:37:16;1.80;;;1.23;;
45198;SDS011;30941;46.422;18.772;2022-09-09T07:39:42;1.30;;;1.05;;
45198;SDS011;30941;46.422;18.772;2022-09-09T07:42:09;1.45;;;1.20;;
45198;SDS011;30941;46.422;18.772;2022-09-09T07:44:36;1.25;;;1.15;;
45198;SDS011;30941;46.422;18.772;2022-09-09T07:47:02;1.17;;;1.10;;
45198;SDS011;30941;46.422;18.772;2022-09-09T07:49:28;1.63;;;1.10;;
45198;SDS011;30941;46.422;18.772;2022-09-09T07:51:53;1.77;;;1.00;;
45198;SDS011;30941;46.422;18.772;2022-09-09T07:54:19;1.40;;;1.05;;
45198;SDS011;30941;46.422;18.772;2022-09-09T07:56:45;3.75;;;1.75;;
45198;SDS011;30941;46.422;18.772;2022-09-09T07:59:12;2.17;;;1.30;;
45198;SDS011;30941;46.422;18.772;2022-09-09T08:01:48;1.77;;;1.42;;
45198;SDS011;30941;46.422;18.772;2022-09-09T08:04:18;2.35;;;1.42;;
45198;SDS011;30941;46.422;18.772;2022-09-09T08:07:02;2.20;;;1.48;;
45198;SDS011;30941;46.422;18.772;2022-09-09T08:09:28;2.83;;;1.60;;
45198;SDS011;30941;46.422;18.772;2022-09-09T08:11:55;2.60;;;1.52;;
45198;SDS011;30941;46.422;18.772;2022-09-09T08:14:21;1.95;;;1.15;;
45198;SDS011;30941;46.422;18.772;2022-09-09T08:16:48;2.45;;;1.45;;
45198;SDS011;30941;46.422;18.772;2022-09-09T08:19:14;1.35;;;0.98;;
45198;SDS011;30941;46.422;18.772;2022-09-09T08:21:40;2.45;;;1.30;;
45198;SDS011;30941;46.422;18.772;2022-09-09T08:24:07;2.50;;;1.30;;
45198;SDS011;30941;46.422;18.772;2022-09-09T08:26:36;2.53;;;1.30;;
45198;SDS011;30941;46.422;18.772;2022-09-09T08:29:04;1.60;;;1.10;;
45198;SDS011;30941;46.422;18.772;2022-09-09T08:31:35;3.90;;;1.40;;
45198;SDS011;30941;46.422;18.772;2022-09-09T08:34:05;2.00;;;1.08;;
45198;SDS011;30941;46.422;18.772;2022-09-09T08:36:44;3.13;;;1.58;;
45198;SDS011;30941;46.422;18.772;2022-09-09T08:39:11;1.25;;;1.15;;
45198;SDS011;30941;46.422;18.772;2022-09-09T08:52:25;1.67;;;1.42;;
45198;SDS011;30941;46.422;18.772;2022-09-09T08:55:02;2.92;;;1.58;;
45198;SDS011;30941;46.422;18.772;2022-09-09T08:57:49;3.72;;;1.70;;
45198;SDS011;30941;46.422;18.772;2022-09-09T09:00:17;1.83;;;1.52;;
45198;SDS011;30941;46.422;18.772;2022-09-09T09:03:06;2.20;;;1.83;;
45198;SDS011;30941;46.422;18.772;2022-09-09T09:05:57;1.98;;;1.70;;
45198;SDS011;30941;46.422;18.772;2022-09-09T09:08:32;1.52;;;1.42;;
45198;SDS011;30941;46.422;18.772;2022-09-09T09:11:03;1.40;;;1.30;;
45198;SDS011;30941;46.422;18.772;2022-09-09T09:16:26;1.30;;;1.20;;
45198;SDS011;30941;46.422;18.772;2022-09-09T09:19:00;1.10;;;1.00;;
45198;SDS011;30941;46.422;18.772;2022-09-09T09:21:37;1.65;;;1.40;;
45198;SDS011;30941;46.422;18.772;2022-09-09T09:24:09;2.00;;;1.00;;
45198;SDS011;30941;46.422;18.772;2022-09-09T09:27:00;1.83;;;1.30;;
45198;SDS011;30941;46.422;18.772;2022-09-09T09:29:43;1.20;;;0.82;;
45198;SDS011;30941;46.422;18.772;2022-09-09T09:32:11;1.20;;;1.00;;
45198;SDS011;30941;46.422;18.772;2022-09-09T09:34:40;0.82;;;0.82;;
45198;SDS011;30941;46.422;18.772;2022-09-09T09:37:12;2.97;;;1.00;;
45198;SDS011;30941;46.422;18.772;2022-09-09T09:39:44;4.63;;;1.20;;
45198;SDS011;30941;46.422;18.772;2022-09-09T09:42:14;2.88;;;1.10;;
45198;SDS011;30941;46.422;18.772;2022-09-09T09:44:42;1.00;;;0.88;;
45198;SDS011;30941;46.422;18.772;2022-09-09T09:47:11;1.60;;;1.17;;
45198;SDS011;30941;46.422;18.772;2022-09-09T09:49:51;1.17;;;1.08;;
45198;SDS011;30941;46.422;18.772;2022-09-09T09:52:20;0.82;;;0.73;;
45198;SDS011;30941;46.422;18.772;2022-09-09T09:54:49;0.82;;;0.80;;
45198;SDS011;30941;46.422;18.772;2022-09-09T09:57:15;1.10;;;1.00;;
45198;SDS011;30941;46.422;18.772;2022-09-09T09:59:41;2.33;;;1.30;;
45198;SDS011;30941;46.422;18.772;2022-09-09T10:05:05;2.17;;;1.30;;
45198;SDS011;30941;46.422;18.772;2022-09-09T10:07:37;1.27;;;1.17;;
45198;SDS011;30941;46.422;18.772;2022-09-09T10:10:04;1.20;;;1.10;;
45198;SDS011;30941;46.422;18.772;2022-09-09T10:12:37;1.00;;;1.00;;
45198;SDS011;30941;46.422;18.772;2022-09-09T10:15:32;1.10;;;1.00;;
45198;SDS011;30941;46.422;18.772;2022-09-09T10:18:17;1.50;;;1.40;;
45198;SDS011;30941;46.422;18.772;2022-09-09T10:26:52;1.27;;;1.00;;
45198;SDS011;30941;46.422;18.772;2022-09-09T10:29:29;1.10;;;1.00;;
45198;SDS011;30941;46.422;18.772;2022-09-09T10:32:06;0.90;;;0.90;;
45198;SDS011;30941;46.422;18.772;2022-09-09T10:38:08;0.90;;;0.90;;
45198;SDS011;30941;46.422;18.772;2022-09-09T10:42:44;1.85;;;1.00;;
45198;SDS011;30941;46.422;18.772;2022-09-09T10:48:04;1.05;;;0.82;;
45198;SDS011;30941;46.422;18.772;2022-09-09T10:53:02;1.20;;;1.10;;
45198;SDS011;30941;46.422;18.772;2022-09-09T10:55:35;1.48;;;1.20;;
45198;SDS011;30941;46.422;18.772;2022-09-09T10:58:04;1.13;;;1.03;;
45198;SDS011;30941;46.422;18.772;2022-09-09T11:03:04;6.90;;;1.30;;
45198;SDS011;30941;46.422;18.772;2022-09-09T11:08:12;1.17;;;0.90;;
45198;SDS011;30941;46.422;18.772;2022-09-09T11:10:42;1.02;;;0.93;;
45198;SDS011;30941;46.422;18.772;2022-09-09T11:13:47;0.77;;;0.75;;
45198;SDS011;30941;46.422;18.772;2022-09-09T11:18:44;0.98;;;0.90;;
45198;SDS011;30941;46.422;18.772;2022-09-09T11:21:22;1.00;;;0.93;;
45198;SDS011;30941;46.422;18.772;2022-09-09T11:24:01;4.10;;;1.20;;
45198;SDS011;30941;46.422;18.772;2022-09-09T11:26:36;0.90;;;0.90;;
45198;SDS011;30941;46.422;18.772;2022-09-09T11:29:16;0.70;;;0.70;;
45198;SDS011;30941;46.422;18.772;2022-09-09T11:40:44;1.10;;;0.68;;
45198;SDS011;30941;46.422;18.772;2022-09-09T11:45:53;2.28;;;1.33;;
45198;SDS011;30941;46.422;18.772;2022-09-09T11:48:23;1.13;;;0.80;;
45198;SDS011;30941;46.422;18.772;2022-09-09T11:53:52;3.03;;;1.10;;
45198;SDS011;30941;46.422;18.772;2022-09-09T11:56:27;1.60;;;1.10;;
45198;SDS011;30941;46.422;18.772;2022-09-09T11:59:02;0.63;;;0.63;;
45198;SDS011;30941;46.422;18.772;2022-09-09T12:09:39;1.08;;;0.85;;
45198;SDS011;30941;46.422;18.772;2022-09-09T12:19:39;0.95;;;0.70;;
45198;SDS011;30941;46.422;18.772;2022-09-09T12:22:15;1.10;;;0.88;;
45198;SDS011;30941;46.422;18.772;2022-09-09T12:33:35;2.08;;;1.00;;
45198;SDS011;30941;46.422;18.772;2022-09-09T12:36:02;0.98;;;0.70;;
45198;SDS011;30941;46.422;18.772;2022-09-09T12:38:34;5.53;;;1.23;;
45198;SDS011;30941;46.422;18.772;2022-09-09T12:41:03;4.32;;;0.95;;
45198;SDS011;30941;46.422;18.772;2022-09-09T12:43:29;1.55;;;0.98;;
45198;SDS011;30941;46.422;18.772;2022-09-09T12:45:59;0.88;;;0.82;;
45198;SDS011;30941;46.422;18.772;2022-09-09T12:48:40;1.30;;;0.98;;
45198;SDS011;30941;46.422;18.772;2022-09-09T12:53:54;0.98;;;0.57;;
45198;SDS011;30941;46.422;18.772;2022-09-09T12:56:21;0.85;;;0.60;;
45198;SDS011;30941;46.422;18.772;2022-09-09T12:58:49;2.08;;;0.95;;
45198;SDS011;30941;46.422;18.772;2022-09-09T13:01:31;1.75;;;0.85;;
45198;SDS011;30941;46.422;18.772;2022-09-09T13:04:01;6.28;;;1.40;;
45198;SDS011;30941;46.422;18.772;2022-09-09T13:06:33;7.57;;;1.48;;
45198;SDS011;30941;46.422;18.772;2022-09-09T13:08:59;1.95;;;1.08;;
45198;SDS011;30941;46.422;18.772;2022-09-09T13:11:28;12.25;;;1.83;;
45198;SDS011;30941;46.422;18.772;2022-09-09T13:13:55;8.85;;;1.98;;
45198;SDS011;30941;46.422;18.772;2022-09-09T13:16:27;1.13;;;0.85;;
45198;SDS011;30941;46.422;18.772;2022-09-09T13:19:00;3.40;;;1.00;;
45198;SDS011;30941;46.422;18.772;2022-09-09T13:21:31;3.97;;;1.10;;
45198;SDS011;30941;46.422;18.772;2022-09-09T13:24:03;1.75;;;0.55;;
45198;SDS011;30941;46.422;18.772;2022-09-09T13:26:31;2.20;;;0.98;;
45198;SDS011;30941;46.422;18.772;2022-09-09T13:29:07;1.80;;;0.80;;
45198;SDS011;30941;46.422;18.772;2022-09-09T13:31:43;0.82;;;0.60;;
45198;SDS011;30941;46.422;18.772;2022-09-09T13:34:13;2.92;;;0.93;;
45198;SDS011;30941;46.422;18.772;2022-09-09T13:36:39;0.88;;;0.85;;
45198;SDS011;30941;46.422;18.772;2022-09-09T13:39:13;1.15;;;0.80;;
45198;SDS011;30941;46.422;18.772;2022-09-09T13:41:42;0.93;;;0.70;;
45198;SDS011;30941;46.422;18.772;2022-09-09T13:44:17;1.50;;;0.70;;
45198;SDS011;30941;46.422;18.772;2022-09-09T13:46:48;1.02;;;0.90;;
45198;SDS011;30941;46.422;18.772;2022-09-09T13:51:43;1.17;;;0.88;;
45198;SDS011;30941;46.422;18.772;2022-09-09T13:54:12;0.63;;;0.60;;
45198;SDS011;30941;46.422;18.772;2022-09-09T13:56:39;1.98;;;0.93;;
45198;SDS011;30941;46.422;18.772;2022-09-09T13:59:08;0.70;;;0.70;;
45198;SDS011;30941;46.422;18.772;2022-09-09T14:01:36;5.93;;;1.33;;
45198;SDS011;30941;46.422;18.772;2022-09-09T14:04:02;3.17;;;1.00;;
45198;SDS011;30941;46.422;18.772;2022-09-09T14:06:29;1.58;;;0.88;;
45198;SDS011;30941;46.422;18.772;2022-09-09T14:08:54;2.60;;;0.80;;
45198;SDS011;30941;46.422;18.772;2022-09-09T14:11:20;1.00;;;0.70;;
45198;SDS011;30941;46.422;18.772;2022-09-09T14:13:46;1.80;;;0.90;;
45198;SDS011;30941;46.422;18.772;2022-09-09T14:16:15;3.75;;;0.90;;
45198;SDS011;30941;46.422;18.772;2022-09-09T14:18:44;0.55;;;0.52;;
45198;SDS011;30941;46.422;18.772;2022-09-09T14:21:10;1.70;;;0.82;;
45198;SDS011;30941;46.422;18.772;2022-09-09T14:23:36;3.03;;;0.80;;
45198;SDS011;30941;46.422;18.772;2022-09-09T14:26:03;3.53;;;0.80;;
45198;SDS011;30941;46.422;18.772;2022-09-09T14:28:29;1.85;;;0.85;;
45198;SDS011;30941;46.422;18.772;2022-09-09T14:30:58;4.30;;;0.75;;
45198;SDS011;30941;46.422;18.772;2022-09-09T14:33:24;0.82;;;0.80;;
45198;SDS011;30941;46.422;18.772;2022-09-09T14:35:55;3.70;;;0.80;;
45198;SDS011;30941;46.422;18.772;2022-09-09T14:38:21;1.25;;;0.70;;
45198;SDS011;30941;46.422;18.772;2022-09-09T14:40:47;0.82;;;0.50;;
45198;SDS011;30941;46.422;18.772;2022-09-09T14:43:12;1.55;;;0.70;;
45198;SDS011;30941;46.422;18.772;2022-09-09T14:45:38;1.83;;;0.90;;
45198;SDS011;30941;46.422;18.772;2022-09-09T14:48:03;0.77;;;0.68;;
45198;SDS011;30941;46.422;18.772;2022-09-09T14:50:29;0.70;;;0.70;;
45198;SDS011;30941;46.422;18.772;2022-09-09T14:52:54;0.60;;;0.57;;
45198;SDS011;30941;46.422;18.772;2022-09-09T14:55:20;2.70;;;0.88;;
45198;SDS011;30941;46.422;18.772;2022-09-09T14:57:46;5.47;;;0.90;;
45198;SDS011;30941;46.422;18.772;2022-09-09T15:00:11;3.17;;;0.98;;
45198;SDS011;30941;46.422;18.772;2022-09-09T15:02:38;1.52;;;0.70;;
45198;SDS011;30941;46.422;18.772;2022-09-09T15:05:04;2.83;;;1.05;;
45198;SDS011;30941;46.422;18.772;2022-09-09T15:07:30;2.70;;;0.75;;
45198;SDS011;30941;46.422;18.772;2022-09-09T15:09:57;1.02;;;0.70;;
45198;SDS011;30941;46.422;18.772;2022-09-09T15:12:23;2.85;;;0.85;;
45198;SDS011;30941;46.422;18.772;2022-09-09T15:14:49;0.80;;;0.65;;
45198;SDS011;30941;46.422;18.772;2022-09-09T15:17:15;1.23;;;0.90;;
45198;SDS011;30941;46.422;18.772;2022-09-09T15:19:41;1.65;;;0.90;;
45198;SDS011;30941;46.422;18.772;2022-09-09T15:22:07;1.70;;;1.00;;
45198;SDS011;30941;46.422;18.772;2022-09-09T15:24:33;1.92;;;1.08;;
45198;SDS011;30941;46.422;18.772;2022-09-09T15:26:59;2.72;;;1.00;;
45198;SDS011;30941;46.422;18.772;2022-09-09T15:29:25;1.35;;;1.02;;
45198;SDS011;30941;46.422;18.772;2022-09-09T15:31:50;1.15;;;0.80;;
45198;SDS011;30941;46.422;18.772;2022-09-09T15:34:16;7.53;;;1.08;;
45198;SDS011;30941;46.422;18.772;2022-09-09T15:36:43;4.25;;;0.90;;
45198;SDS011;30941;46.422;18.772;2022-09-09T15:39:10;1.67;;;0.90;;
45198;SDS011;30941;46.422;18.772;2022-09-09T15:41:38;1.50;;;0.90;;
45198;SDS011;30941;46.422;18.772;2022-09-09T15:44:04;2.03;;;0.80;;
45198;SDS011;30941;46.422;18.772;2022-09-09T15:46:34;2.38;;;0.93;;
45198;SDS011;30941;46.422;18.772;2022-09-09T15:49:03;0.93;;;0.70;;
45198;SDS011;30941;46.422;18.772;2022-09-09T15:51:36;0.50;;;0.50;;
45198;SDS011;30941;46.422;18.772;2022-09-09T15:54:18;1.75;;;1.00;;
45198;SDS011;30941;46.422;18.772;2022-09-09T15:56:50;7.93;;;1.10;;
45198;SDS011;30941;46.422;18.772;2022-09-09T15:59:17;4.97;;;1.13;;
45198;SDS011;30941;46.422;18.772;2022-09-09T16:01:43;1.00;;;0.90;;
45198;SDS011;30941;46.422;18.772;2022-09-09T16:04:09;1.48;;;1.05;;
45198;SDS011;30941;46.422;18.772;2022-09-09T16:06:34;1.65;;;0.98;;
45198;SDS011;30941;46.422;18.772;2022-09-09T16:09:01;2.05;;;0.90;;
45198;SDS011;30941;46.422;18.772;2022-09-09T16:11:33;2.60;;;0.80;;
45198;SDS011;30941;46.422;18.772;2022-09-09T16:14:00;1.08;;;0.95;;
45198;SDS011;30941;46.422;18.772;2022-09-09T16:16:27;2.05;;;0.90;;
45198;SDS011;30941;46.422;18.772;2022-09-09T16:18:58;3.33;;;1.02;;
45198;SDS011;30941;46.422;18.772;2022-09-09T16:21:26;1.10;;;1.00;;
45198;SDS011;30941;46.422;18.772;2022-09-09T16:23:56;2.33;;;0.98;;
45198;SDS011;30941;46.422;18.772;2022-09-09T16:26:24;1.88;;;1.20;;
45198;SDS011;30941;46.422;18.772;2022-09-09T16:28:50;1.17;;;0.88;;
45198;SDS011;30941;46.422;18.772;2022-09-09T16:31:19;1.20;;;0.85;;
45198;SDS011;30941;46.422;18.772;2022-09-09T16:33:46;1.15;;;1.05;;
45198;SDS011;30941;46.422;18.772;2022-09-09T16:36:13;1.55;;;1.05;;
45198;SDS011;30941;46.422;18.772;2022-09-09T16:38:52;2.63;;;1.00;;
45198;SDS011;30941;46.422;18.772;2022-09-09T16:41:20;2.30;;;0.80;;
45198;SDS011;30941;46.422;18.772;2022-09-09T16:43:45;1.85;;;1.13;;
45198;SDS011;30941;46.422;18.772;2022-09-09T16:46:17;1.52;;;1.10;;
45198;SDS011;30941;46.422;18.772;2022-09-09T16:48:44;1.05;;;0.90;;
45198;SDS011;30941;46.422;18.772;2022-09-09T16:51:13;1.27;;;0.68;;
45198;SDS011;30941;46.422;18.772;2022-09-09T16:53:43;2.40;;;1.20;;
45198;SDS011;30941;46.422;18.772;2022-09-09T16:56:11;1.05;;;0.93;;
45198;SDS011;30941;46.422;18.772;2022-09-09T16:58:38;2.13;;;0.98;;
45198;SDS011;30941;46.422;18.772;2022-09-09T17:01:03;3.00;;;1.52;;
45198;SDS011;30941;46.422;18.772;2022-09-09T17:03:30;1.63;;;1.00;;
45198;SDS011;30941;46.422;18.772;2022-09-09T17:05:56;3.50;;;1.20;;
45198;SDS011;30941;46.422;18.772;2022-09-09T17:08:23;1.73;;;1.10;;
45198;SDS011;30941;46.422;18.772;2022-09-09T17:10:49;2.67;;;1.13;;
45198;SDS011;30941;46.422;18.772;2022-09-09T17:13:15;3.00;;;1.60;;
45198;SDS011;30941;46.422;18.772;2022-09-09T17:15:41;4.47;;;1.60;;
45198;SDS011;30941;46.422;18.772;2022-09-09T17:18:08;3.97;;;1.50;;
45198;SDS011;30941;46.422;18.772;2022-09-09T17:20:35;4.30;;;1.75;;
45198;SDS011;30941;46.422;18.772;2022-09-09T17:23:02;3.10;;;1.73;;
45198;SDS011;30941;46.422;18.772;2022-09-09T17:25:27;6.28;;;2.20;;
45198;SDS011;30941;46.422;18.772;2022-09-09T17:27:53;5.68;;;2.58;;
45198;SDS011;30941;46.422;18.772;2022-09-09T17:30:18;6.40;;;2.58;;
45198;SDS011;30941;46.422;18.772;2022-09-09T17:32:44;7.65;;;3.00;;
45198;SDS011;30941;46.422;18.772;2022-09-09T17:35:11;9.30;;;3.17;;
45198;SDS011;30941;46.422;18.772;2022-09-09T17:37:36;5.15;;;2.60;;
45198;SDS011;30941;46.422;18.772;2022-09-09T17:40:02;6.60;;;2.83;;
45198;SDS011;30941;46.422;18.772;2022-09-09T17:42:27;7.78;;;3.58;;
45198;SDS011;30941;46.422;18.772;2022-09-09T17:44:53;5.03;;;2.60;;
45198;SDS011;30941;46.422;18.772;2022-09-09T17:47:18;8.80;;;3.03;;
45198;SDS011;30941;46.422;18.772;2022-09-09T17:49:44;5.45;;;2.80;;
45198;SDS011;30941;46.422;18.772;2022-09-09T17:52:09;6.68;;;3.20;;
45198;SDS011;30941;46.422;18.772;2022-09-09T17:54:34;7.85;;;3.20;;
45198;SDS011;30941;46.422;18.772;2022-09-09T17:57:00;5.60;;;2.83;;
45198;SDS011;30941;46.422;18.772;2022-09-09T17:59:26;8.07;;;3.00;;
45198;SDS011;30941;46.422;18.772;2022-09-09T18:01:51;5.93;;;2.90;;
45198;SDS011;30941;46.422;18.772;2022-09-09T18:04:17;7.72;;;2.88;;
45198;SDS011;30941;46.422;18.772;2022-09-09T18:06:47;5.93;;;3.10;;
45198;SDS011;30941;46.422;18.772;2022-09-09T18:09:15;4.88;;;2.53;;
45198;SDS011;30941;46.422;18.772;2022-09-09T18:11:43;4.53;;;2.60;;
45198;SDS011;30941;46.422;18.772;2022-09-09T18:14:17;4.45;;;2.50;;
45198;SDS011;30941;46.422;18.772;2022-09-09T18:16:44;7.93;;;2.50;;
45198;SDS011;30941;46.422;18.772;2022-09-09T18:19:11;4.95;;;2.55;;
45198;SDS011;30941;46.422;18.772;2022-09-09T18:21:38;3.25;;;2.13;;
45198;SDS011;30941;46.422;18.772;2022-09-09T18:24:05;4.35;;;2.33;;
45198;SDS011;30941;46.422;18.772;2022-09-09T18:26:32;4.38;;;1.88;;
45198;SDS011;30941;46.422;18.772;2022-09-09T18:28:59;4.97;;;2.38;;
45198;SDS011;30941;46.422;18.772;2022-09-09T18:31:29;4.70;;;1.77;;
45198;SDS011;30941;46.422;18.772;2022-09-09T18:33:57;2.67;;;1.90;;